createdAt,value
2019-05-19T00:01:59.547Z,79.87
2019-05-19T00:04:30.080Z,79.93
2019-05-19T00:07:00.742Z,80.10
2019-05-19T00:09:31.464Z,80.34
2019-05-19T00:12:01.951Z,80.58
2019-05-19T00:14:32.385Z,80.96
2019-05-19T00:17:02.919Z,81.61
2019-05-19T00:19:33.412Z,82.27
2019-05-19T00:22:03.967Z,82.21
2019-05-19T00:24:34.498Z,82.86
2019-05-19T00:27:04.995Z,83.98
2019-05-19T00:29:35.528Z,84.54
2019-05-19T00:32:06.365Z,84.60
2019-05-19T00:34:37.249Z,85.14
2019-05-19T00:37:07.949Z,85.34
2019-05-19T00:39:38.457Z,85.82
2019-05-19T00:42:09.112Z,86.09
2019-05-19T00:44:39.567Z,86.20
2019-05-19T00:47:10.358Z,86.27
2019-05-19T00:49:41.852Z,86.43
2019-05-19T00:52:12.395Z,86.34
2019-05-19T00:54:42.876Z,86.79
2019-05-19T00:57:14.526Z,86.17
2019-05-19T00:59:46.032Z,86.24
2019-05-19T01:02:16.757Z,86.43
2019-05-19T01:04:47.136Z,86.08
2019-05-19T01:07:17.771Z,85.80
2019-05-19T01:09:48.241Z,85.85
2019-05-19T01:12:18.720Z,86.14
2019-05-19T01:14:49.338Z,85.92
2019-05-19T01:17:19.787Z,85.92
2019-05-19T01:19:56.086Z,85.85
2019-05-19T01:22:22.546Z,86.21
2019-05-19T01:24:53.164Z,86.50
2019-05-19T01:27:23.959Z,86.91
2019-05-19T01:29:54.434Z,87.06
2019-05-19T01:32:25.083Z,87.46
2019-05-19T01:34:55.585Z,87.15
2019-05-19T01:37:26.046Z,87.09
2019-05-19T01:39:56.500Z,87.23
2019-05-19T01:42:27.081Z,87.26
2019-05-19T01:44:57.562Z,87.16
2019-05-19T01:47:28.062Z,87.24
2019-05-19T01:50:16.460Z,87.16
2019-05-19T01:52:30.836Z,87.11
2019-05-19T01:55:01.285Z,86.71
2019-05-19T01:57:31.956Z,87.10
2019-05-19T02:00:03.082Z,87.19
2019-05-19T02:02:33.981Z,86.88
2019-05-19T02:05:04.610Z,87.11
2019-05-19T02:07:35.180Z,87.41
2019-05-19T02:10:06.597Z,87.21
2019-05-19T02:12:37.021Z,87.30
2019-05-19T02:15:08.091Z,86.88
2019-05-19T02:17:38.595Z,87.17
2019-05-19T02:20:10.407Z,86.95
2019-05-19T02:22:40.882Z,86.94
2019-05-19T02:25:12.079Z,86.79
2019-05-19T02:27:42.550Z,86.30
2019-05-19T02:30:13.152Z,86.16
2019-05-19T02:32:43.797Z,86.39
2019-05-19T02:35:15.548Z,86.69
2019-05-19T02:37:46.068Z,86.08
2019-05-19T02:40:17.512Z,86.21
2019-05-19T02:42:51.103Z,86.15
2019-05-19T02:45:21.684Z,86.01
2019-05-19T02:47:53.742Z,86.51
2019-05-19T02:50:26.399Z,87.00
2019-05-19T02:53:00.478Z,87.36
2019-05-19T02:55:32.550Z,87.98
2019-05-19T02:58:04.135Z,87.79
2019-05-19T03:00:40.668Z,87.78
2019-05-19T03:03:11.419Z,87.72
2019-05-19T03:05:41.965Z,87.69
2019-05-19T03:08:12.451Z,87.75
2019-05-19T03:10:42.935Z,88.17
2019-05-19T03:13:13.641Z,88.19
2019-05-19T03:15:44.159Z,88.48
2019-05-19T03:18:14.801Z,88.27
2019-05-19T03:20:45.307Z,88.26
2019-05-19T03:23:15.777Z,88.65
2019-05-19T03:25:46.357Z,88.47
2019-05-19T03:28:16.812Z,88.64
2019-05-19T03:31:13.869Z,89.09
2019-05-19T03:33:46.660Z,88.78
2019-05-19T03:36:17.370Z,88.68
2019-05-19T03:38:48.138Z,88.88
2019-05-19T03:41:18.764Z,88.70
2019-05-19T03:43:49.266Z,88.84
2019-05-19T03:46:19.898Z,88.92
2019-05-19T03:48:50.349Z,89.18
2019-05-19T03:51:31.111Z,89.04
2019-05-19T03:53:53.111Z,88.99
2019-05-19T03:56:23.916Z,88.65
2019-05-19T03:58:54.447Z,88.52
2019-05-19T04:01:24.924Z,88.69
2019-05-19T04:03:55.436Z,88.93
2019-05-19T04:06:25.910Z,88.63
2019-05-19T04:08:56.322Z,88.57
2019-05-19T04:11:26.820Z,88.36
2019-05-19T04:13:57.722Z,88.59
2019-05-19T04:16:28.512Z,88.34
2019-05-19T04:18:58.972Z,88.30
2019-05-19T04:21:38.850Z,87.98
2019-05-19T04:24:01.783Z,87.73
2019-05-19T04:26:32.281Z,87.78
2019-05-19T04:29:02.790Z,87.73
2019-05-19T04:31:33.355Z,87.98
2019-05-19T04:34:03.851Z,87.41
2019-05-19T04:36:34.360Z,87.25
2019-05-19T04:39:06.893Z,87.20
2019-05-19T04:41:40.207Z,87.22
2019-05-19T04:44:09.582Z,86.85
2019-05-19T04:46:40.109Z,86.78
2019-05-19T04:49:10.566Z,86.66
2019-05-19T04:51:41.024Z,86.55
2019-05-19T04:54:11.524Z,86.69
2019-05-19T04:56:41.937Z,86.80
2019-05-19T04:59:12.404Z,86.75
2019-05-19T05:01:43.084Z,86.51
2019-05-19T05:04:13.601Z,86.29
2019-05-19T05:06:44.092Z,86.41
2019-05-19T05:09:14.609Z,86.21
2019-05-19T05:11:45.228Z,86.17
2019-05-19T05:14:15.748Z,86.18
2019-05-19T05:16:46.344Z,86.15
2019-05-19T05:19:16.885Z,86.00
2019-05-19T05:21:47.379Z,86.18
2019-05-19T05:24:17.825Z,86.06
2019-05-19T05:26:48.295Z,85.62
2019-05-19T05:29:18.772Z,85.82
2019-05-19T05:31:49.415Z,85.78
2019-05-19T05:34:19.930Z,85.96
2019-05-19T05:36:50.452Z,86.02
2019-05-19T05:39:21.029Z,86.10
2019-05-19T05:41:51.600Z,86.00
2019-05-19T05:44:22.108Z,86.03
2019-05-19T05:46:52.608Z,86.37
2019-05-19T05:49:23.149Z,86.21
2019-05-19T05:51:53.611Z,86.27
2019-05-19T05:54:24.161Z,86.61
2019-05-19T05:56:54.666Z,86.87
2019-05-19T05:59:25.178Z,87.26
2019-05-19T06:01:55.650Z,87.28
2019-05-19T06:04:26.174Z,86.95
2019-05-19T06:06:56.627Z,87.05
2019-05-19T06:09:27.166Z,87.01
2019-05-19T06:11:57.680Z,86.53
2019-05-19T06:14:28.408Z,86.27
2019-05-19T06:16:58.880Z,86.32
2019-05-19T06:19:29.738Z,86.17
2019-05-19T06:22:00.288Z,86.04
2019-05-19T06:24:30.776Z,86.03
2019-05-19T06:27:01.355Z,85.95
2019-05-19T06:29:31.862Z,85.58
2019-05-19T06:32:09.313Z,85.79
2019-05-19T06:34:39.807Z,85.50
2019-05-19T06:37:10.295Z,85.27
2019-05-19T06:39:40.866Z,84.97
2019-05-19T06:42:11.429Z,84.50
2019-05-19T06:44:41.994Z,84.64
2019-05-19T06:47:12.415Z,84.03
2019-05-19T06:49:42.881Z,84.03
2019-05-19T06:52:13.376Z,84.50
2019-05-19T06:54:44.521Z,84.43
2019-05-19T06:57:15.320Z,83.59
2019-05-19T06:59:45.822Z,83.40
2019-05-19T07:02:16.417Z,83.61
2019-05-19T07:04:46.912Z,83.28
2019-05-19T07:07:17.374Z,82.90
2019-05-19T07:09:57.895Z,83.34
2019-05-19T07:12:20.139Z,83.15
2019-05-19T07:14:50.636Z,83.63
2019-05-19T07:17:21.117Z,83.35
2019-05-19T07:20:31.891Z,83.05
2019-05-19T07:24:24.085Z,82.51
2019-05-19T07:31:56.798Z,82.71
2019-05-19T07:34:49.879Z,82.21
2019-05-19T07:41:15.109Z,82.30
2019-05-19T07:44:16.221Z,82.44
2019-05-19T07:46:54.455Z,82.57
2019-05-19T07:50:00.212Z,82.14
2019-05-19T07:52:53.273Z,82.09
2019-05-19T07:55:52.790Z,82.02
2019-05-19T07:58:55.431Z,82.54
2019-05-19T08:01:26.377Z,82.88
2019-05-19T08:04:22.479Z,83.48
2019-05-19T08:06:57.856Z,84.62
2019-05-19T08:09:57.782Z,84.47
2019-05-19T08:12:32.263Z,84.72
2019-05-19T08:15:04.094Z,84.51
2019-05-19T08:17:34.623Z,84.53
2019-05-19T08:20:05.921Z,83.72
2019-05-19T08:22:36.590Z,83.66
2019-05-19T08:25:22.727Z,83.71
2019-05-19T08:27:53.380Z,84.21
2019-05-19T08:30:24.237Z,84.39
2019-05-19T08:33:05.279Z,84.36
2019-05-19T08:35:35.797Z,84.92
2019-05-19T08:38:06.713Z,84.38
2019-05-19T08:40:37.309Z,83.42
2019-05-19T08:43:12.506Z,83.68
2019-05-19T08:45:43.270Z,83.76
2019-05-19T08:48:13.827Z,82.76
2019-05-19T08:50:45.876Z,82.71
2019-05-19T08:53:16.538Z,81.57
2019-05-19T08:55:47.985Z,81.39
2019-05-19T08:58:26.205Z,81.64
2019-05-19T09:01:15.577Z,82.21
2019-05-19T09:04:04.998Z,82.99
2019-05-19T09:07:07.243Z,82.89
2019-05-19T09:09:39.969Z,83.45
2019-05-19T09:12:10.906Z,83.23
2019-05-19T09:14:45.290Z,82.67
2019-05-19T09:17:15.906Z,82.05
2019-05-19T09:19:51.386Z,81.96
2019-05-19T09:22:21.879Z,81.70
2019-05-19T09:24:55.242Z,81.74
2019-05-19T09:27:31.692Z,81.50
2019-05-19T09:30:03.678Z,81.41
2019-05-19T09:32:34.440Z,81.52
2019-05-19T09:35:27.569Z,81.31
2019-05-19T09:37:58.267Z,82.28
2019-05-19T09:40:28.887Z,83.11
2019-05-19T09:42:59.560Z,84.24
2019-05-19T09:45:30.195Z,85.08
2019-05-19T09:48:00.748Z,85.13
2019-05-19T09:50:31.733Z,84.80
2019-05-19T09:53:03.161Z,84.82
2019-05-19T09:55:45.298Z,84.21
2019-05-19T09:58:19.659Z,84.18
2019-05-19T10:00:48.353Z,84.56
2019-05-19T10:03:19.762Z,84.84
2019-05-19T10:05:51.139Z,85.23
2019-05-19T10:08:31.734Z,85.72
2019-05-19T10:11:47.633Z,84.56
2019-05-19T10:14:18.803Z,83.26
2019-05-19T10:16:49.710Z,83.73
2019-05-19T10:19:21.010Z,83.48
2019-05-19T10:21:51.749Z,82.44
2019-05-19T10:24:22.327Z,81.92
2019-05-19T10:26:53.138Z,82.55
2019-05-19T10:29:23.899Z,82.17
2019-05-19T10:31:54.636Z,81.70
2019-05-19T10:34:25.378Z,80.25
2019-05-19T10:36:56.060Z,79.83
2019-05-19T10:39:27.134Z,80.05
2019-05-19T10:41:57.671Z,79.43
2019-05-19T10:44:28.300Z,79.00
2019-05-19T10:46:58.897Z,79.41
2019-05-19T10:49:29.477Z,79.82
2019-05-19T10:52:00.097Z,79.99
2019-05-19T10:54:30.606Z,79.54
2019-05-19T10:57:01.109Z,77.95
2019-05-19T10:59:31.791Z,77.96
2019-05-19T11:02:02.361Z,77.08
2019-05-19T11:04:36.213Z,77.62
2019-05-19T11:07:06.786Z,77.23
2019-05-19T11:09:37.302Z,77.11
2019-05-19T11:12:07.978Z,77.15
2019-05-19T11:14:40.456Z,77.42
2019-05-19T11:17:12.875Z,78.22
2019-05-19T11:19:43.588Z,78.77
2019-05-19T11:22:14.081Z,78.63
2019-05-19T11:24:44.645Z,77.95
2019-05-19T11:27:15.212Z,78.05
2019-05-19T11:29:47.441Z,78.67
2019-05-19T11:32:17.988Z,79.55
2019-05-19T11:34:48.542Z,78.71
2019-05-19T11:37:19.177Z,77.26
2019-05-19T11:39:49.826Z,77.00
2019-05-19T11:42:20.354Z,76.13
2019-05-19T11:44:53.570Z,74.81
2019-05-19T11:47:24.274Z,76.30
2019-05-19T11:49:54.840Z,76.14
2019-05-19T11:52:25.456Z,75.12
2019-05-19T11:54:56.394Z,73.99
2019-05-19T11:57:28.337Z,72.46
2019-05-19T12:00:02.145Z,73.78
2019-05-19T12:02:34.397Z,74.53
2019-05-19T12:05:05.510Z,75.63
2019-05-19T12:07:36.820Z,74.58
2019-05-19T12:10:10.459Z,75.33
2019-05-19T12:12:44.782Z,74.55
2019-05-19T12:15:25.605Z,74.33
2019-05-19T12:18:05.016Z,73.46
2019-05-19T12:21:21.391Z,74.49
2019-05-19T12:23:59.206Z,75.27
2019-05-19T12:26:30.231Z,75.14
2019-05-19T12:29:06.027Z,74.41
2019-05-19T12:31:44.288Z,73.80
2019-05-19T12:34:15.490Z,75.22
2019-05-19T12:36:49.275Z,74.41
2019-05-19T12:39:19.902Z,75.69
2019-05-19T12:41:50.382Z,75.62
2019-05-19T12:44:20.939Z,75.81
2019-05-19T12:46:51.524Z,76.69
2019-05-19T12:49:22.518Z,76.49
2019-05-19T12:51:53.030Z,76.17
2019-05-19T12:54:23.758Z,76.67
2019-05-19T12:56:54.376Z,77.68
2019-05-19T12:59:24.936Z,78.73
2019-05-19T13:01:55.667Z,79.51
2019-05-19T13:04:26.250Z,79.38
2019-05-19T13:06:56.859Z,79.77
2019-05-19T13:09:29.059Z,79.31
2019-05-19T13:12:01.155Z,79.61
2019-05-19T13:14:31.841Z,81.20
2019-05-19T13:17:02.550Z,81.42
2019-05-19T13:19:34.070Z,80.73
2019-05-19T13:22:04.569Z,81.37
2019-05-19T13:24:35.066Z,81.48
2019-05-19T13:27:05.641Z,83.18
2019-05-19T13:29:36.299Z,82.71
2019-05-19T13:32:06.817Z,82.79
2019-05-19T13:34:37.412Z,82.39
2019-05-19T13:37:09.510Z,83.53
2019-05-19T13:39:40.319Z,84.63
2019-05-19T13:42:11.007Z,84.18
2019-05-19T13:44:42.175Z,82.99
2019-05-19T13:47:13.217Z,82.41
2019-05-19T13:49:43.869Z,82.43
2019-05-19T13:52:15.732Z,82.79
2019-05-19T13:54:46.369Z,81.50
2019-05-19T13:57:16.868Z,81.92
2019-05-19T13:59:47.464Z,83.40
2019-05-19T14:02:18.095Z,82.30
2019-05-19T14:04:48.682Z,81.29
2019-05-19T14:07:19.351Z,81.24
2019-05-19T14:09:50.127Z,82.23
2019-05-19T14:12:21.200Z,82.24
2019-05-19T14:14:52.239Z,82.41
2019-05-19T14:17:24.857Z,82.22
2019-05-19T14:19:55.599Z,82.79
2019-05-19T14:22:26.673Z,84.54
2019-05-19T14:24:57.488Z,85.44
2019-05-19T14:27:31.137Z,86.04
2019-05-19T14:30:02.012Z,85.53
2019-05-19T14:32:32.625Z,84.38
2019-05-19T14:35:03.186Z,85.21
2019-05-19T14:37:34.210Z,85.48
2019-05-19T14:40:05.049Z,84.29
2019-05-19T14:42:49.211Z,84.60
2019-05-19T14:45:20.230Z,84.69
2019-05-19T14:47:50.834Z,84.50
2019-05-19T14:50:21.385Z,84.47
2019-05-19T14:52:51.928Z,85.75
2019-05-19T14:55:22.580Z,86.40
2019-05-19T14:57:53.117Z,87.43
2019-05-19T15:00:24.286Z,88.39
2019-05-19T15:02:55.040Z,88.62
2019-05-19T15:05:25.625Z,89.33
2019-05-19T15:07:56.188Z,88.39
2019-05-19T15:10:26.831Z,88.48
2019-05-19T15:12:57.689Z,89.97
2019-05-19T15:15:28.262Z,90.52
2019-05-19T15:17:58.906Z,89.64
2019-05-19T15:20:29.552Z,88.29
2019-05-19T15:23:01.610Z,88.26
2019-05-19T15:25:32.245Z,88.20
2019-05-19T15:28:05.341Z,88.61
2019-05-19T15:30:52.035Z,88.64
2019-05-19T15:33:38.628Z,89.10
2019-05-19T15:36:29.340Z,89.75
2019-05-19T15:39:02.930Z,88.62
2019-05-19T15:41:37.464Z,88.51
2019-05-19T15:44:12.212Z,88.71
2019-05-19T15:46:45.437Z,88.08
2019-05-19T15:49:16.918Z,88.81
2019-05-19T15:52:00.324Z,88.59
2019-05-19T15:54:20.418Z,88.41
2019-05-19T15:56:51.062Z,89.39
2019-05-19T15:59:21.814Z,90.79
2019-05-19T16:01:52.608Z,91.22
2019-05-19T16:04:23.922Z,90.94
2019-05-19T16:06:54.827Z,90.45
2019-05-19T16:09:25.430Z,90.26
2019-05-19T16:12:09.712Z,90.65
2019-05-19T16:14:40.311Z,90.88
2019-05-19T16:17:10.892Z,90.52
2019-05-19T16:19:41.569Z,90.24
2019-05-19T16:22:12.144Z,90.11
2019-05-19T16:24:43.058Z,89.94
2019-05-19T16:27:15.771Z,91.16
2019-05-19T16:29:46.386Z,92.40
2019-05-19T16:32:16.889Z,92.13
2019-05-19T16:34:47.446Z,91.20
2019-05-19T16:37:18.071Z,90.40
2019-05-19T16:39:48.771Z,90.73
2019-05-19T16:42:19.473Z,91.29
2019-05-19T16:44:50.007Z,92.25
2019-05-19T16:47:20.577Z,93.77
2019-05-19T16:49:51.090Z,92.48
2019-05-19T16:52:21.701Z,92.71
2019-05-19T16:55:11.408Z,92.77
2019-05-19T16:57:42.025Z,92.73
2019-05-19T17:00:13.248Z,93.76
2019-05-19T17:02:44.304Z,94.61
2019-05-19T17:05:16.767Z,94.11
2019-05-19T17:07:47.409Z,94.46
2019-05-19T17:10:18.180Z,95.00
2019-05-19T17:12:48.827Z,94.96
2019-05-19T17:15:21.515Z,94.49
2019-05-19T17:17:52.195Z,94.22
2019-05-19T17:20:23.254Z,94.21
2019-05-19T17:22:53.891Z,94.10
2019-05-19T17:25:24.666Z,94.54
2019-05-19T17:27:55.318Z,94.31
2019-05-19T17:30:26.071Z,94.38
2019-05-19T17:32:57.393Z,94.52
2019-05-19T17:35:28.574Z,95.09
2019-05-19T17:37:59.097Z,95.56
2019-05-19T17:40:29.693Z,95.40
2019-05-19T17:43:01.779Z,95.06
2019-05-19T17:45:32.735Z,95.13
2019-05-19T17:48:09.936Z,94.91
2019-05-19T17:50:36.683Z,96.57
2019-05-19T17:53:07.511Z,95.99
2019-05-19T17:55:38.235Z,95.64
2019-05-19T17:58:08.921Z,95.66
2019-05-19T18:00:43.176Z,95.14
2019-05-19T18:03:14.422Z,95.00
2019-05-19T18:05:45.164Z,95.35
2019-05-19T18:08:15.818Z,95.25
2019-05-19T18:10:46.834Z,95.02
2019-05-19T18:13:17.408Z,95.77
2019-05-19T18:15:47.899Z,95.70
2019-05-19T18:18:18.516Z,95.30
2019-05-19T18:20:49.386Z,95.94
2019-05-19T18:23:19.982Z,96.90
2019-05-19T18:25:51.929Z,97.69
2019-05-19T18:28:22.609Z,97.52
2019-05-19T18:30:53.232Z,96.56
2019-05-19T18:33:24.085Z,97.18
2019-05-19T18:35:54.801Z,98.02
2019-05-19T18:38:25.771Z,97.81
2019-05-19T18:40:56.376Z,98.63
2019-05-19T18:43:26.929Z,99.24
2019-05-19T18:45:57.691Z,99.77
2019-05-19T18:48:28.443Z,99.53
2019-05-19T18:50:59.416Z,100.01
2019-05-19T18:53:30.129Z,100.07
2019-05-19T18:56:01.703Z,99.78
2019-05-19T18:58:32.370Z,99.60
2019-05-19T19:01:03.185Z,99.43
2019-05-19T19:03:33.817Z,99.07
2019-05-19T19:06:04.683Z,99.11
2019-05-19T19:08:37.859Z,99.22
2019-05-19T19:11:07.847Z,99.82
2019-05-19T19:13:38.638Z,100.20
2019-05-19T19:16:09.312Z,100.45
2019-05-19T19:18:40.005Z,101.07
2019-05-19T19:21:10.745Z,101.62
2019-05-19T19:23:41.338Z,101.53
2019-05-19T19:26:12.075Z,102.05
2019-05-19T19:28:42.756Z,101.72
2019-05-19T19:31:14.558Z,101.70
2019-05-19T19:33:45.257Z,101.79
2019-05-19T19:36:15.811Z,101.75
2019-05-19T19:38:46.406Z,101.60
2019-05-19T19:41:17.159Z,101.68
2019-05-19T19:43:47.737Z,101.56
2019-05-19T19:46:18.604Z,101.88
2019-05-19T19:48:49.189Z,102.16
2019-05-19T19:51:20.963Z,102.13
2019-05-19T19:53:51.804Z,102.22
2019-05-19T19:56:22.465Z,102.08
2019-05-19T19:58:53.437Z,101.61
2019-05-19T20:01:24.082Z,102.39
2019-05-19T20:03:54.850Z,102.17
2019-05-19T20:06:25.387Z,101.56
2019-05-19T20:08:56.267Z,101.60
2019-05-19T20:11:26.900Z,102.20
2019-05-19T20:13:57.581Z,101.83
2019-05-19T20:16:28.210Z,101.52
2019-05-19T20:18:58.854Z,101.63
2019-05-19T20:21:29.433Z,101.36
2019-05-19T20:24:00.283Z,102.21
2019-05-19T20:26:31.328Z,102.23
2019-05-19T20:29:01.906Z,102.77
2019-05-19T20:31:32.905Z,102.67
2019-05-19T20:34:03.562Z,102.84
2019-05-19T20:36:53.137Z,103.27
2019-05-19T20:39:23.682Z,103.30
2019-05-19T20:41:54.232Z,103.09
2019-05-19T20:44:24.848Z,103.04
2019-05-19T20:46:55.277Z,102.68
2019-05-19T20:49:25.801Z,102.64
2019-05-19T20:51:56.349Z,102.59
2019-05-19T20:54:26.841Z,103.04
2019-05-19T20:56:57.328Z,103.07
2019-05-19T20:59:27.794Z,102.78
2019-05-19T21:01:59.171Z,103.36
2019-05-19T21:04:29.645Z,103.16
2019-05-19T21:07:00.164Z,103.39
2019-05-19T21:09:30.656Z,103.26
2019-05-19T21:12:01.164Z,103.39
2019-05-19T21:14:31.720Z,102.99
2019-05-19T21:17:02.249Z,102.82
2019-05-19T21:19:32.708Z,102.62
2019-05-19T21:22:03.415Z,102.68
2019-05-19T21:24:33.908Z,102.62
2019-05-19T21:27:04.402Z,102.38
2019-05-19T21:29:34.897Z,102.72
2019-05-19T21:32:05.482Z,102.79
2019-05-19T21:34:35.962Z,102.83
2019-05-19T21:37:06.488Z,102.98
2019-05-19T21:39:36.927Z,102.81
2019-05-19T21:42:07.467Z,102.31
2019-05-19T21:44:37.976Z,102.39
2019-05-19T21:47:08.443Z,102.53
2019-05-19T21:49:39.172Z,102.05
2019-05-19T21:52:09.705Z,102.30
2019-05-19T21:54:40.391Z,102.33
2019-05-19T21:57:30.325Z,102.72
2019-05-19T22:00:00.817Z,102.41
2019-05-19T22:02:31.699Z,102.62
2019-05-19T22:05:02.380Z,102.41
2019-05-19T22:07:48.808Z,102.06
2019-05-19T22:10:19.341Z,102.20
2019-05-19T22:12:49.859Z,102.04
2019-05-19T22:15:20.365Z,102.30
2019-05-19T22:17:50.947Z,102.25
2019-05-19T22:20:21.539Z,102.20
2019-05-19T22:22:51.970Z,102.17
2019-05-19T22:25:22.575Z,101.86
2019-05-19T22:27:53.205Z,102.07
2019-05-19T22:30:24.071Z,101.81
2019-05-19T22:32:55.022Z,101.63
2019-05-19T22:35:25.559Z,101.40
2019-05-19T22:37:56.619Z,101.52
2019-05-19T22:40:31.560Z,102.01
2019-05-19T22:43:02.213Z,102.26
2019-05-19T22:45:32.704Z,102.21
2019-05-19T22:48:03.187Z,101.71
2019-05-19T22:50:33.775Z,101.46
2019-05-19T22:53:04.274Z,101.40
2019-05-19T22:55:34.751Z,101.31
2019-05-19T22:58:05.541Z,101.21
2019-05-19T23:00:36.153Z,101.25
2019-05-19T23:03:06.657Z,101.50
2019-05-19T23:05:37.172Z,101.46
2019-05-19T23:08:07.635Z,101.82
2019-05-19T23:10:38.108Z,101.58
2019-05-19T23:13:08.664Z,101.13
2019-05-19T23:15:39.147Z,101.24
2019-05-19T23:18:09.623Z,101.00
2019-05-19T23:20:40.251Z,101.03
2019-05-19T23:23:10.724Z,101.11
2019-05-19T23:25:41.157Z,100.98
2019-05-19T23:28:11.689Z,100.59
2019-05-19T23:30:42.222Z,100.37
2019-05-19T23:33:12.791Z,100.12
2019-05-19T23:35:43.286Z,100.11
2019-05-19T23:38:14.367Z,100.11
2019-05-19T23:40:44.905Z,99.72
2019-05-19T23:43:16.107Z,99.52
2019-05-19T23:45:46.634Z,99.20
2019-05-19T23:48:17.109Z,99.09
2019-05-19T23:50:47.718Z,99.37
2019-05-19T23:53:18.147Z,99.54
2019-05-19T23:55:48.629Z,99.30
2019-05-19T23:58:22.110Z,99.45
